UAE2K OMDB-HECA
Flight info
| Callsign | UAE2K |
|---|---|
| Flight time | N/A |
| Altitude | 34000 |
| Route | ANVIX DCT TANSU DCT 21N051E DCT AMBAG M321 HLF W334 NAGIP N697 RUKET L550 NOVPA N697 MENLI L677 GESON |
| Aircraft | B77W/H-SDE2E3FGHIJ3J5M1P2RWXYZ/LB1D1 |
Departure
| Time | 2026-04-23 16:06 |
|---|---|
| Airport | Dubai International Airport (OMDB) |
Arrival
| Time | N/A |
|---|---|
| Airport | Cairo International Airport (HECA) |
| Time | Latitude | Longitude | Altitude | Speed | Heading |
|---|---|---|---|---|---|
| 2026-04-23 15:30 | 25.24637 | 55.36657 | 32 ft | 0 kts | 276° |
| 2026-04-23 15:45 | 25.24636 | 55.36670 | 33 ft | 2 kts | 281° |
| 2026-04-23 15:45 | 25.24631 | 55.36685 | 34 ft | 2 kts | 299° |
| 2026-04-23 15:45 | 25.24622 | 55.36698 | 36 ft | 2 kts | 314° |
| 2026-04-23 15:46 | 25.24611 | 55.36709 | 37 ft | 2 kts | 329° |
| 2026-04-23 15:46 | 25.24598 | 55.36715 | 37 ft | 2 kts | 343° |
| 2026-04-23 15:46 | 25.24583 | 55.36718 | 37 ft | 2 kts | 358° |
| 2026-04-23 15:46 | 25.24568 | 55.36716 | 37 ft | 2 kts | 13° |
| 2026-04-23 15:47 | 25.24554 | 55.36711 | 37 ft | 1 kts | 29° |
| 2026-04-23 15:47 | 25.24550 | 55.36708 | 36 ft | 0 kts | 32° |
| 2026-04-23 15:50 | 25.24553 | 55.36710 | 37 ft | 2 kts | 32° |
| 2026-04-23 15:50 | 25.24591 | 55.36736 | 39 ft | 9 kts | 30° |
| 2026-04-23 15:51 | 25.24660 | 55.36782 | 33 ft | 14 kts | 31° |
| 2026-04-23 15:51 | 25.24745 | 55.36808 | 41 ft | 11 kts | 335° |
| 2026-04-23 15:51 | 25.24783 | 55.36718 | 46 ft | 12 kts | 287° |
| 2026-04-23 15:51 | 25.24811 | 55.36635 | 45 ft | 13 kts | 295° |
| 2026-04-23 15:52 | 25.24870 | 55.36518 | 38 ft | 20 kts | 301° |
| 2026-04-23 15:52 | 25.24946 | 55.36377 | 32 ft | 21 kts | 301° |
| 2026-04-23 15:52 | 25.25017 | 55.36247 | 34 ft | 17 kts | 302° |
| 2026-04-23 15:52 | 25.25074 | 55.36147 | 36 ft | 14 kts | 302° |
| 2026-04-23 15:53 | 25.25131 | 55.36048 | 33 ft | 15 kts | 303° |
| 2026-04-23 15:53 | 25.25186 | 55.35950 | 33 ft | 13 kts | 302° |
| 2026-04-23 15:53 | 25.25243 | 55.35841 | 36 ft | 20 kts | 301° |
| 2026-04-23 15:53 | 25.25324 | 55.35703 | 34 ft | 21 kts | 300° |
| 2026-04-23 15:54 | 25.25397 | 55.35565 | 32 ft | 19 kts | 301° |
| 2026-04-23 15:54 | 25.25465 | 55.35442 | 32 ft | 17 kts | 301° |
| 2026-04-23 15:54 | 25.25526 | 55.35332 | 33 ft | 16 kts | 300° |
| 2026-04-23 15:54 | 25.25582 | 55.35232 | 34 ft | 14 kts | 302° |
| 2026-04-23 15:55 | 25.25631 | 55.35159 | 34 ft | 9 kts | 329° |
| 2026-04-23 15:55 | 25.25686 | 55.35167 | 35 ft | 8 kts | 27° |
| 2026-04-23 15:55 | 25.25742 | 55.35202 | 36 ft | 10 kts | 30° |
| 2026-04-23 15:55 | 25.25808 | 55.35246 | 36 ft | 11 kts | 31° |
| 2026-04-23 15:56 | 25.25877 | 55.35292 | 35 ft | 13 kts | 31° |
| 2026-04-23 15:56 | 25.25967 | 55.35366 | 36 ft | 16 kts | 52° |
| 2026-04-23 15:56 | 25.25994 | 55.35473 | 38 ft | 13 kts | 92° |
| 2026-04-23 15:56 | 25.25971 | 55.35563 | 38 ft | 11 kts | 120° |
| 2026-04-23 15:57 | 25.25923 | 55.35651 | 38 ft | 16 kts | 121° |
| 2026-04-23 15:57 | 25.25851 | 55.35780 | 40 ft | 23 kts | 122° |
| 2026-04-23 15:57 | 25.25757 | 55.35949 | 42 ft | 26 kts | 120° |
| 2026-04-23 15:57 | 25.25670 | 55.36113 | 44 ft | 23 kts | 122° |
| 2026-04-23 15:58 | 25.25588 | 55.36256 | 45 ft | 20 kts | 122° |
| 2026-04-23 15:58 | 25.25513 | 55.36387 | 45 ft | 19 kts | 120° |
| 2026-04-23 15:58 | 25.25449 | 55.36505 | 46 ft | 16 kts | 123° |
| 2026-04-23 15:58 | 25.25391 | 55.36607 | 47 ft | 15 kts | 121° |
| 2026-04-23 15:59 | 25.25335 | 55.36711 | 48 ft | 17 kts | 120° |
| 2026-04-23 15:59 | 25.25268 | 55.36834 | 49 ft | 19 kts | 122° |
| 2026-04-23 15:59 | 25.25192 | 55.36967 | 51 ft | 19 kts | 122° |
| 2026-04-23 15:59 | 25.25124 | 55.37088 | 51 ft | 17 kts | 121° |
| 2026-04-23 16:00 | 25.25063 | 55.37201 | 51 ft | 16 kts | 120° |
| 2026-04-23 16:00 | 25.25007 | 55.37304 | 51 ft | 14 kts | 122° |
| 2026-04-23 16:00 | 25.24956 | 55.37394 | 52 ft | 12 kts | 122° |
| 2026-04-23 16:00 | 25.24910 | 55.37476 | 54 ft | 12 kts | 121° |
| 2026-04-23 16:01 | 25.24865 | 55.37558 | 54 ft | 12 kts | 120° |
| 2026-04-23 16:01 | 25.24823 | 55.37636 | 54 ft | 11 kts | 120° |
| 2026-04-23 16:01 | 25.24778 | 55.37718 | 54 ft | 12 kts | 122° |
| 2026-04-23 16:01 | 25.24734 | 55.37794 | 54 ft | 11 kts | 121° |
| 2026-04-23 16:02 | 25.24696 | 55.37864 | 55 ft | 9 kts | 122° |
| 2026-04-23 16:02 | 25.24669 | 55.37921 | 56 ft | 6 kts | 92° |
| 2026-04-23 16:02 | 25.24681 | 55.37953 | 57 ft | 2 kts | 48° |
| 2026-04-23 16:02 | 25.24691 | 55.37963 | 57 ft | 1 kts | 39° |
| 2026-04-23 16:03 | 25.24707 | 55.37976 | 57 ft | 4 kts | 36° |
| 2026-04-23 16:03 | 25.24731 | 55.37995 | 58 ft | 4 kts | 36° |
| 2026-04-23 16:03 | 25.24751 | 55.38011 | 58 ft | 6 kts | 34° |
| 2026-04-23 16:03 | 25.24799 | 55.38033 | 58 ft | 4 kts | 349° |
| 2026-04-23 16:04 | 25.24810 | 55.38022 | 58 ft | 0 kts | 301° |
| 2026-04-23 16:05 | 25.24856 | 55.37938 | 56 ft | 40 kts | 301° |
| 2026-04-23 16:05 | 25.25130 | 55.37446 | 52 ft | 108 kts | 302° |
| 2026-04-23 16:05 | 25.25621 | 55.36559 | 46 ft | 164 kts | 301° |
| 2026-04-23 16:06 | 25.26040 | 55.35786 | 254 ft | 179 kts | 301° |
| 2026-04-23 16:06 | 25.27502 | 55.33116 | 1617 ft | 191 kts | 303° |
| 2026-04-23 16:06 | 25.28209 | 55.31860 | 2094 ft | 196 kts | 302° |
| 2026-04-23 16:07 | 25.28893 | 55.30545 | 2619 ft | 199 kts | 291° |
| 2026-04-23 16:07 | 25.29118 | 55.29037 | 3112 ft | 204 kts | 266° |
| 2026-04-23 16:07 | 25.28741 | 55.27537 | 3602 ft | 208 kts | 247° |
| 2026-04-23 16:07 | 25.28127 | 55.26094 | 4113 ft | 209 kts | 246° |
| 2026-04-23 16:08 | 25.27499 | 55.24629 | 4606 ft | 211 kts | 246° |
| 2026-04-23 16:08 | 25.26874 | 55.23161 | 5081 ft | 213 kts | 246° |
| 2026-04-23 16:08 | 25.26456 | 55.22176 | 5400 ft | 214 kts | 246° |
| 2026-04-23 16:09 | 25.24663 | 55.18224 | 6101 ft | 247 kts | 230° |
| 2026-04-23 16:09 | 25.23250 | 55.17089 | 6547 ft | 254 kts | 200° |
| 2026-04-23 16:09 | 25.21500 | 55.16784 | 6955 ft | 263 kts | 179° |
| 2026-04-23 16:09 | 25.19656 | 55.17018 | 7466 ft | 268 kts | 160° |
| 2026-04-23 16:10 | 25.18082 | 55.18074 | 7932 ft | 273 kts | 134° |
| 2026-04-23 16:10 | 25.16991 | 55.19872 | 8148 ft | 290 kts | 115° |
| 2026-04-23 16:10 | 25.16117 | 55.21905 | 8605 ft | 297 kts | 116° |
| 2026-04-23 16:10 | 25.15186 | 55.23965 | 9156 ft | 300 kts | 117° |
| 2026-04-23 16:11 | 25.14553 | 55.25315 | 9510 ft | 302 kts | 118° |
| 2026-04-23 16:11 | 25.13234 | 55.28075 | 10226 ft | 306 kts | 118° |
| 2026-04-23 16:11 | 25.12240 | 55.30142 | 10773 ft | 309 kts | 118° |
| 2026-04-23 16:11 | 25.11229 | 55.32240 | 11355 ft | 312 kts | 119° |
| 2026-04-23 16:12 | 25.10229 | 55.34362 | 11964 ft | 315 kts | 116° |
| 2026-04-23 16:12 | 25.09336 | 55.36562 | 12597 ft | 318 kts | 115° |
| 2026-04-23 16:12 | 25.08439 | 55.38809 | 13265 ft | 322 kts | 116° |
| 2026-04-23 16:12 | 25.07528 | 55.41051 | 13930 ft | 326 kts | 116° |
| 2026-04-23 16:13 | 25.06607 | 55.43345 | 14512 ft | 335 kts | 115° |
| 2026-04-23 16:13 | 25.04706 | 55.48322 | 15324 ft | 369 kts | 115° |
| 2026-04-23 16:13 | 25.03687 | 55.50976 | 15734 ft | 385 kts | 115° |
| 2026-04-23 16:14 | 25.02608 | 55.53777 | 16146 ft | 401 kts | 115° |
| 2026-04-23 16:14 | 25.01353 | 55.56570 | 16504 ft | 415 kts | 121° |
| 2026-04-23 16:14 | 24.99869 | 55.59346 | 16840 ft | 430 kts | 122° |
| 2026-04-23 16:14 | 24.98311 | 55.62224 | 17263 ft | 442 kts | 122° |
| 2026-04-23 16:15 | 24.96740 | 55.65126 | 17856 ft | 448 kts | 123° |
| 2026-04-23 16:15 | 24.95132 | 55.68099 | 18472 ft | 452 kts | 123° |
| 2026-04-23 16:15 | 24.93418 | 55.71024 | 19031 ft | 456 kts | 127° |
| 2026-04-23 16:15 | 24.91545 | 55.73872 | 19616 ft | 460 kts | 128° |
| 2026-04-23 16:16 | 24.89657 | 55.76714 | 20194 ft | 463 kts | 128° |
| 2026-04-23 16:16 | 24.87748 | 55.79587 | 20752 ft | 467 kts | 128° |
| 2026-04-23 16:16 | 24.85831 | 55.82471 | 21290 ft | 470 kts | 128° |
| 2026-04-23 16:16 | 24.83884 | 55.85401 | 21825 ft | 474 kts | 128° |
| 2026-04-23 16:17 | 24.81770 | 55.88149 | 22327 ft | 474 kts | 137° |
| 2026-04-23 16:17 | 24.79261 | 55.90516 | 22825 ft | 474 kts | 147° |
| 2026-04-23 16:17 | 24.76458 | 55.92416 | 23320 ft | 474 kts | 155° |
| 2026-04-23 16:17 | 24.73457 | 55.93807 | 23782 ft | 474 kts | 165° |
| 2026-04-23 16:18 | 24.70228 | 55.94692 | 24232 ft | 474 kts | 173° |
| 2026-04-23 16:18 | 24.66955 | 55.95012 | 24684 ft | 473 kts | 182° |
| 2026-04-23 16:18 | 24.63676 | 55.94773 | 25143 ft | 473 kts | 191° |
| 2026-04-23 16:18 | 24.60461 | 55.93984 | 25583 ft | 473 kts | 200° |
| 2026-04-23 16:19 | 24.57378 | 55.92652 | 26002 ft | 475 kts | 209° |
| 2026-04-23 16:19 | 24.54541 | 55.90825 | 26436 ft | 476 kts | 218° |
| 2026-04-23 16:19 | 24.52819 | 55.89360 | 26740 ft | 476 kts | 224° |
| 2026-04-23 16:19 | 24.49788 | 55.85831 | 27356 ft | 476 kts | 235° |
| 2026-04-23 16:20 | 24.47990 | 55.82781 | 27822 ft | 476 kts | 244° |
| 2026-04-23 16:20 | 24.46583 | 55.79483 | 28296 ft | 478 kts | 247° |
| 2026-04-23 16:20 | 24.44995 | 55.76242 | 28812 ft | 484 kts | 240° |
| 2026-04-23 16:20 | 24.43039 | 55.73233 | 29357 ft | 489 kts | 234° |
| 2026-04-23 16:21 | 24.40777 | 55.70445 | 30034 ft | 490 kts | 230° |
| 2026-04-23 16:21 | 24.38341 | 55.67843 | 30764 ft | 489 kts | 226° |
| 2026-04-23 16:21 | 24.35812 | 55.65410 | 31461 ft | 489 kts | 224° |
| 2026-04-23 16:21 | 24.33174 | 55.63067 | 32188 ft | 488 kts | 222° |
| 2026-04-23 16:22 | 24.30454 | 55.60791 | 32952 ft | 485 kts | 221° |
| 2026-04-23 16:22 | 24.27760 | 55.58630 | 33666 ft | 482 kts | 220° |
| 2026-04-23 16:22 | 24.25026 | 55.56501 | 33948 ft | 485 kts | 219° |
| 2026-04-23 16:22 | 24.22242 | 55.54395 | 33956 ft | 481 kts | 219° |
| 2026-04-23 16:23 | 24.16776 | 55.50363 | 33953 ft | 472 kts | 219° |
| 2026-04-23 16:23 | 24.11296 | 55.46399 | 33845 ft | 470 kts | 219° |
| 2026-04-23 16:24 | 24.05787 | 55.42463 | 33832 ft | 473 kts | 218° |
| 2026-04-23 16:24 | 24.00296 | 55.38569 | 33836 ft | 473 kts | 218° |
| 2026-04-23 16:25 | 23.94779 | 55.34674 | 33835 ft | 473 kts | 217° |
| 2026-04-23 16:25 | 23.89237 | 55.30771 | 33840 ft | 473 kts | 217° |
| 2026-04-23 16:26 | 23.83694 | 55.26875 | 33834 ft | 474 kts | 217° |
| 2026-04-23 16:26 | 23.78149 | 55.22985 | 33832 ft | 474 kts | 217° |
| 2026-04-23 16:27 | 23.72608 | 55.19101 | 33829 ft | 473 kts | 217° |
| 2026-04-23 16:27 | 23.67047 | 55.15209 | 33827 ft | 473 kts | 218° |
| 2026-04-23 16:28 | 23.61498 | 55.11328 | 33826 ft | 473 kts | 218° |
| 2026-04-23 16:28 | 23.55955 | 55.07456 | 33826 ft | 473 kts | 218° |
| 2026-04-23 16:29 | 23.50421 | 55.03595 | 33826 ft | 473 kts | 218° |
| 2026-04-23 16:29 | 23.44898 | 54.99744 | 33833 ft | 472 kts | 218° |
| 2026-04-23 16:30 | 23.39335 | 54.95870 | 33856 ft | 472 kts | 218° |
| 2026-04-23 16:30 | 23.33816 | 54.92030 | 33874 ft | 472 kts | 218° |
| 2026-04-23 16:31 | 23.28292 | 54.88191 | 33880 ft | 472 kts | 218° |
| 2026-04-23 16:31 | 23.22735 | 54.84333 | 33883 ft | 472 kts | 218° |
| 2026-04-23 16:32 | 23.17217 | 54.80506 | 33883 ft | 472 kts | 218° |
| 2026-04-23 16:32 | 23.11642 | 54.76643 | 33881 ft | 472 kts | 218° |
| 2026-04-23 16:33 | 23.06086 | 54.72797 | 33880 ft | 473 kts | 218° |
| 2026-04-23 16:33 | 23.00540 | 54.68961 | 33879 ft | 473 kts | 218° |
| 2026-04-23 16:34 | 22.94978 | 54.65119 | 33880 ft | 473 kts | 218° |
| 2026-04-23 16:34 | 22.89451 | 54.61304 | 33880 ft | 473 kts | 218° |
| 2026-04-23 16:35 | 22.83892 | 54.57471 | 33878 ft | 473 kts | 218° |
| 2026-04-23 16:35 | 22.78328 | 54.53638 | 33876 ft | 473 kts | 218° |
| 2026-04-23 16:36 | 22.72805 | 54.49732 | 33864 ft | 470 kts | 223° |
| 2026-04-23 16:36 | 22.68957 | 54.45676 | 33854 ft | 461 kts | 236° |